sensor_id;sensor_type;location;lat;lon;timestamp;pressure;altitude;pressure_sealevel;temperature;humidity
70921;BME280;58572;48.110;19.838;2023-02-07T00:01:30;99880.81;;;-6.59;67.35
70921;BME280;58572;48.110;19.838;2023-02-07T00:03:57;99882.88;;;-7.05;68.56
70921;BME280;58572;48.110;19.838;2023-02-07T00:06:28;99880.91;;;-6.81;68.02
70921;BME280;58572;48.110;19.838;2023-02-07T00:08:55;99880.13;;;-7.26;69.80
70921;BME280;58572;48.110;19.838;2023-02-07T00:11:24;99879.97;;;-7.58;71.95
70921;BME280;58572;48.110;19.838;2023-02-07T00:13:52;99871.06;;;-6.26;67.69
70921;BME280;58572;48.110;19.838;2023-02-07T00:16:20;99845.50;;;-7.01;69.15
70921;BME280;58572;48.110;19.838;2023-02-07T00:18:47;99869.63;;;-6.94;70.34
70921;BME280;58572;48.110;19.838;2023-02-07T00:21:16;99870.78;;;-5.91;65.40
70921;BME280;58572;48.110;19.838;2023-02-07T00:23:46;99871.31;;;-5.97;67.34
70921;BME280;58572;48.110;19.838;2023-02-07T00:26:14;99876.63;;;-6.29;65.80
70921;BME280;58572;48.110;19.838;2023-02-07T00:28:42;99884.75;;;-5.89;65.49
70921;BME280;58572;48.110;19.838;2023-02-07T00:31:11;99874.34;;;-5.71;64.56
70921;BME280;58572;48.110;19.838;2023-02-07T00:33:40;99878.22;;;-6.06;66.20
70921;BME280;58572;48.110;19.838;2023-02-07T00:36:10;99884.56;;;-7.27;67.41
70921;BME280;58572;48.110;19.838;2023-02-07T00:38:38;99891.38;;;-6.16;66.08
70921;BME280;58572;48.110;19.838;2023-02-07T00:41:07;99889.19;;;-6.86;67.14
70921;BME280;58572;48.110;19.838;2023-02-07T00:43:34;99891.41;;;-6.27;66.49
70921;BME280;58572;48.110;19.838;2023-02-07T00:46:02;99856.06;;;-8.01;70.67
70921;BME280;58572;48.110;19.838;2023-02-07T00:48:31;99890.97;;;-7.98;72.66
70921;BME280;58572;48.110;19.838;2023-02-07T00:50:58;99888.28;;;-6.64;68.27
70921;BME280;58572;48.110;19.838;2023-02-07T00:53:26;99895.22;;;-6.95;71.16
70921;BME280;58572;48.110;19.838;2023-02-07T00:55:54;99882.47;;;-6.90;70.83
70921;BME280;58572;48.110;19.838;2023-02-07T00:58:22;99880.56;;;-6.56;69.13
70921;BME280;58572;48.110;19.838;2023-02-07T01:00:49;99884.28;;;-6.15;67.99
70921;BME280;58572;48.110;19.838;2023-02-07T01:03:17;99814.78;;;-6.28;65.30
70921;BME280;58572;48.110;19.838;2023-02-07T01:05:44;99876.41;;;-6.37;66.48
70921;BME280;58572;48.110;19.838;2023-02-07T01:08:11;99872.59;;;-6.13;64.53
70921;BME280;58572;48.110;19.838;2023-02-07T01:10:39;99873.84;;;-6.60;67.18
70921;BME280;58572;48.110;19.838;2023-02-07T01:13:06;99866.97;;;-6.19;66.87
70921;BME280;58572;48.110;19.838;2023-02-07T01:15:36;99851.19;;;-6.73;66.91
70921;BME280;58572;48.110;19.838;2023-02-07T01:18:04;99850.16;;;-6.29;66.78
70921;BME280;58572;48.110;19.838;2023-02-07T01:20:32;99847.16;;;-6.57;65.73
70921;BME280;58572;48.110;19.838;2023-02-07T01:22:59;99838.97;;;-6.22;67.04
70921;BME280;58572;48.110;19.838;2023-02-07T01:25:26;99844.97;;;-6.20;66.50
70921;BME280;58572;48.110;19.838;2023-02-07T01:27:54;99839.09;;;-6.23;66.17
70921;BME280;58572;48.110;19.838;2023-02-07T01:30:21;99828.28;;;-6.31;67.20
70921;BME280;58572;48.110;19.838;2023-02-07T01:32:49;99832.59;;;-6.30;66.27
70921;BME280;58572;48.110;19.838;2023-02-07T01:35:16;99834.72;;;-6.24;65.62
70921;BME280;58572;48.110;19.838;2023-02-07T01:37:43;99833.28;;;-6.17;66.63
70921;BME280;58572;48.110;19.838;2023-02-07T01:40:11;99834.13;;;-6.17;65.51
70921;BME280;58572;48.110;19.838;2023-02-07T01:42:38;99828.00;;;-6.17;65.99
70921;BME280;58572;48.110;19.838;2023-02-07T01:45:17;99824.72;;;-6.41;65.56
70921;BME280;58572;48.110;19.838;2023-02-07T01:47:50;99821.09;;;-6.40;65.85
70921;BME280;58572;48.110;19.838;2023-02-07T01:50:19;99813.69;;;-6.26;65.36
70921;BME280;58572;48.110;19.838;2023-02-07T01:52:47;99708.47;;;-6.85;65.71
70921;BME280;58572;48.110;19.838;2023-02-07T01:55:18;99820.59;;;-6.34;65.97
70921;BME280;58572;48.110;19.838;2023-02-07T01:57:47;99820.59;;;-6.34;65.75
70921;BME280;58572;48.110;19.838;2023-02-07T02:00:15;99801.03;;;-6.43;65.81
70921;BME280;58572;48.110;19.838;2023-02-07T02:02:43;99707.84;;;-7.52;65.87
70921;BME280;58572;48.110;19.838;2023-02-07T02:05:12;99826.59;;;-6.53;66.60
70921;BME280;58572;48.110;19.838;2023-02-07T02:07:40;99827.84;;;-6.68;65.73
70921;BME280;58572;48.110;19.838;2023-02-07T02:10:12;99832.69;;;-7.17;67.34
70921;BME280;58572;48.110;19.838;2023-02-07T02:12:52;99829.34;;;-6.55;65.98
70921;BME280;58572;48.110;19.838;2023-02-07T02:15:32;99830.63;;;-6.70;65.98
70921;BME280;58572;48.110;19.838;2023-02-07T02:18:19;99824.38;;;-7.34;67.99
70921;BME280;58572;48.110;19.838;2023-02-07T02:24:05;99824.28;;;-7.22;67.31
70921;BME280;58572;48.110;19.838;2023-02-07T02:26:56;99840.56;;;-7.05;66.65
70921;BME280;58572;48.110;19.838;2023-02-07T02:30:07;99843.63;;;-6.78;65.77
70921;BME280;58572;48.110;19.838;2023-02-07T02:33:09;99845.00;;;-6.95;66.60
70921;BME280;58572;48.110;19.838;2023-02-07T02:35:45;99841.69;;;-6.76;65.38
70921;BME280;58572;48.110;19.838;2023-02-07T02:38:16;99847.22;;;-7.78;68.47
70921;BME280;58572;48.110;19.838;2023-02-07T02:40:52;99842.06;;;-7.24;68.14
70921;BME280;58572;48.110;19.838;2023-02-07T02:43:27;99844.31;;;-7.30;68.40
70921;BME280;58572;48.110;19.838;2023-02-07T02:46:00;99837.13;;;-6.74;66.59
70921;BME280;58572;48.110;19.838;2023-02-07T02:48:29;99828.50;;;-6.55;66.05
70921;BME280;58572;48.110;19.838;2023-02-07T02:50:57;99834.22;;;-6.71;65.96
70921;BME280;58572;48.110;19.838;2023-02-07T02:53:24;99835.75;;;-6.57;65.41
70921;BME280;58572;48.110;19.838;2023-02-07T02:56:11;99833.16;;;-7.45;67.56
70921;BME280;58572;48.110;19.838;2023-02-07T02:58:59;99828.13;;;-7.70;69.68
70921;BME280;58572;48.110;19.838;2023-02-07T03:01:37;99790.16;;;-6.82;66.39
70921;BME280;58572;48.110;19.838;2023-02-07T03:04:28;99807.09;;;-6.52;64.73
70921;BME280;58572;48.110;19.838;2023-02-07T03:07:23;99804.00;;;-6.57;65.09
70921;BME280;58572;48.110;19.838;2023-02-07T03:10:00;99808.19;;;-7.19;65.57
70921;BME280;58572;48.110;19.838;2023-02-07T03:12:30;99807.63;;;-6.90;66.50
70921;BME280;58572;48.110;19.838;2023-02-07T03:15:02;99810.72;;;-6.85;66.23
70921;BME280;58572;48.110;19.838;2023-02-07T03:17:33;99816.44;;;-6.69;65.21
70921;BME280;58572;48.110;19.838;2023-02-07T03:20:08;99816.94;;;-6.75;65.25
70921;BME280;58572;48.110;19.838;2023-02-07T03:22:37;99818.03;;;-7.21;66.65
70921;BME280;58572;48.110;19.838;2023-02-07T03:25:07;99822.13;;;-6.53;64.37
70921;BME280;58572;48.110;19.838;2023-02-07T03:27:36;99824.97;;;-7.31;66.70
70921;BME280;58572;48.110;19.838;2023-02-07T03:30:07;99826.50;;;-6.95;66.73
70921;BME280;58572;48.110;19.838;2023-02-07T03:32:38;99770.19;;;-7.06;65.14
70921;BME280;58572;48.110;19.838;2023-02-07T03:35:12;99829.53;;;-7.11;66.43
70921;BME280;58572;48.110;19.838;2023-02-07T03:37:46;99818.75;;;-7.30;65.95
70921;BME280;58572;48.110;19.838;2023-02-07T03:40:15;99831.84;;;-7.40;67.56
70921;BME280;58572;48.110;19.838;2023-02-07T03:42:46;99829.56;;;-7.78;69.62
70921;BME280;58572;48.110;19.838;2023-02-07T03:45:17;99822.09;;;-7.17;66.12
70921;BME280;58572;48.110;19.838;2023-02-07T03:47:45;99827.25;;;-6.72;66.20
70921;BME280;58572;48.110;19.838;2023-02-07T03:50:14;99822.53;;;-6.36;63.21
70921;BME280;58572;48.110;19.838;2023-02-07T03:52:42;99817.13;;;-6.99;65.95
70921;BME280;58572;48.110;19.838;2023-02-07T03:55:09;99817.84;;;-6.97;65.17
70921;BME280;58572;48.110;19.838;2023-02-07T03:57:36;99811.06;;;-7.33;67.39
70921;BME280;58572;48.110;19.838;2023-02-07T04:00:05;99807.03;;;-6.62;65.34
70921;BME280;58572;48.110;19.838;2023-02-07T04:02:32;99805.84;;;-6.69;64.58
70921;BME280;58572;48.110;19.838;2023-02-07T04:04:59;99803.22;;;-6.69;64.73
70921;BME280;58572;48.110;19.838;2023-02-07T04:07:28;99808.09;;;-6.85;65.00
70921;BME280;58572;48.110;19.838;2023-02-07T04:09:54;99808.22;;;-7.63;67.39
70921;BME280;58572;48.110;19.838;2023-02-07T04:12:21;99806.09;;;-7.04;66.85
70921;BME280;58572;48.110;19.838;2023-02-07T04:14:48;99812.75;;;-7.21;65.98
70921;BME280;58572;48.110;19.838;2023-02-07T04:17:15;99792.81;;;-7.47;67.33
70921;BME280;58572;48.110;19.838;2023-02-07T04:19:42;99815.34;;;-6.98;65.80
70921;BME280;58572;48.110;19.838;2023-02-07T04:22:09;99820.44;;;-7.51;65.99
70921;BME280;58572;48.110;19.838;2023-02-07T04:24:38;99789.47;;;-7.49;66.81
70921;BME280;58572;48.110;19.838;2023-02-07T04:27:04;99828.72;;;-7.45;66.21
70921;BME280;58572;48.110;19.838;2023-02-07T04:29:31;99768.13;;;-8.24;68.18
70921;BME280;58572;48.110;19.838;2023-02-07T04:31:58;99824.03;;;-7.97;69.87
70921;BME280;58572;48.110;19.838;2023-02-07T04:34:25;99807.13;;;-6.84;65.31
70921;BME280;58572;48.110;19.838;2023-02-07T04:36:52;99774.03;;;-7.11;65.15
70921;BME280;58572;48.110;19.838;2023-02-07T04:39:20;99828.25;;;-6.84;64.84
70921;BME280;58572;48.110;19.838;2023-02-07T04:41:48;99817.88;;;-7.08;65.41
70921;BME280;58572;48.110;19.838;2023-02-07T04:44:15;99815.13;;;-7.06;64.59
70921;BME280;58572;48.110;19.838;2023-02-07T04:46:42;99818.34;;;-7.03;64.45
70921;BME280;58572;48.110;19.838;2023-02-07T04:49:09;99810.09;;;-7.21;65.87
70921;BME280;58572;48.110;19.838;2023-02-07T04:51:37;99814.31;;;-7.18;65.25
70921;BME280;58572;48.110;19.838;2023-02-07T04:54:04;99828.09;;;-8.15;69.37
70921;BME280;58572;48.110;19.838;2023-02-07T04:56:31;99821.41;;;-7.97;69.10
70921;BME280;58572;48.110;19.838;2023-02-07T04:58:59;99822.38;;;-7.64;68.18
70921;BME280;58572;48.110;19.838;2023-02-07T05:01:26;99829.31;;;-7.30;66.42
70921;BME280;58572;48.110;19.838;2023-02-07T05:03:53;99825.38;;;-6.81;64.85
70921;BME280;58572;48.110;19.838;2023-02-07T05:06:20;99823.69;;;-6.82;63.96
70921;BME280;58572;48.110;19.838;2023-02-07T05:08:47;99826.38;;;-6.93;64.98
70921;BME280;58572;48.110;19.838;2023-02-07T05:11:14;99811.53;;;-7.17;64.92
70921;BME280;58572;48.110;19.838;2023-02-07T05:13:41;99818.03;;;-7.21;65.35
70921;BME280;58572;48.110;19.838;2023-02-07T05:16:09;99852.97;;;-7.62;66.89
70921;BME280;58572;48.110;19.838;2023-02-07T05:18:36;99848.81;;;-8.22;69.38
70921;BME280;58572;48.110;19.838;2023-02-07T05:21:03;99841.94;;;-7.67;68.34
70921;BME280;58572;48.110;19.838;2023-02-07T05:23:30;99851.09;;;-6.83;64.89
70921;BME280;58572;48.110;19.838;2023-02-07T05:25:57;99841.88;;;-7.00;65.14
70921;BME280;58572;48.110;19.838;2023-02-07T05:28:23;99853.78;;;-7.05;64.83
70921;BME280;58572;48.110;19.838;2023-02-07T05:30:52;99862.47;;;-7.15;65.54
70921;BME280;58572;48.110;19.838;2023-02-07T05:33:21;99855.84;;;-7.31;65.63
70921;BME280;58572;48.110;19.838;2023-02-07T05:35:47;99847.69;;;-7.17;66.19
70921;BME280;58572;48.110;19.838;2023-02-07T05:38:16;99849.13;;;-7.13;65.69
70921;BME280;58572;48.110;19.838;2023-02-07T05:40:43;99846.59;;;-7.37;65.61
70921;BME280;58572;48.110;19.838;2023-02-07T05:43:11;99855.41;;;-8.27;68.12
70921;BME280;58572;48.110;19.838;2023-02-07T05:45:38;99852.13;;;-7.85;68.67
70921;BME280;58572;48.110;19.838;2023-02-07T05:48:06;99854.88;;;-7.42;67.44
70921;BME280;58572;48.110;19.838;2023-02-07T05:50:34;99860.03;;;-7.85;69.22
70921;BME280;58572;48.110;19.838;2023-02-07T05:53:01;99858.97;;;-7.71;68.62
70921;BME280;58572;48.110;19.838;2023-02-07T05:55:29;99848.78;;;-7.42;66.09
70921;BME280;58572;48.110;19.838;2023-02-07T05:57:56;99848.88;;;-7.32;66.53
70921;BME280;58572;48.110;19.838;2023-02-07T06:00:23;99847.94;;;-7.65;68.75
70921;BME280;58572;48.110;19.838;2023-02-07T06:02:50;99834.09;;;-7.13;64.53
70921;BME280;58572;48.110;19.838;2023-02-07T06:05:18;99768.00;;;-7.56;65.51
70921;BME280;58572;48.110;19.838;2023-02-07T06:07:47;99832.44;;;-7.25;65.22
70921;BME280;58572;48.110;19.838;2023-02-07T06:10:14;99836.38;;;-7.30;65.35
70921;BME280;58572;48.110;19.838;2023-02-07T06:12:40;99836.03;;;-7.15;64.82
70921;BME280;58572;48.110;19.838;2023-02-07T06:15:07;99834.09;;;-7.13;64.63
70921;BME280;58572;48.110;19.838;2023-02-07T06:17:35;99846.84;;;-7.51;66.29
70921;BME280;58572;48.110;19.838;2023-02-07T06:20:03;99856.69;;;-7.31;65.81
70921;BME280;58572;48.110;19.838;2023-02-07T06:22:30;99850.34;;;-7.62;67.03
70921;BME280;58572;48.110;19.838;2023-02-07T06:24:59;99845.38;;;-8.81;69.38
70921;BME280;58572;48.110;19.838;2023-02-07T06:27:25;99841.31;;;-7.82;67.92
70921;BME280;58572;48.110;19.838;2023-02-07T06:29:52;99816.13;;;-7.41;65.94
70921;BME280;58572;48.110;19.838;2023-02-07T06:32:20;99858.38;;;-7.30;65.53
70921;BME280;58572;48.110;19.838;2023-02-07T06:34:46;99857.91;;;-7.24;64.94
70921;BME280;58572;48.110;19.838;2023-02-07T06:37:13;99869.19;;;-7.11;64.47
70921;BME280;58572;48.110;19.838;2023-02-07T06:39:40;99862.09;;;-7.55;66.35
70921;BME280;58572;48.110;19.838;2023-02-07T06:42:09;99866.56;;;-7.22;65.90
70921;BME280;58572;48.110;19.838;2023-02-07T06:44:36;99866.56;;;-7.22;65.15
70921;BME280;58572;48.110;19.838;2023-02-07T06:47:03;99849.72;;;-7.32;65.30
70921;BME280;58572;48.110;19.838;2023-02-07T06:49:30;99865.81;;;-7.13;65.44
70921;BME280;58572;48.110;19.838;2023-02-07T06:51:57;99865.22;;;-7.61;64.88
70921;BME280;58572;48.110;19.838;2023-02-07T06:54:24;99842.53;;;-7.75;66.33
70921;BME280;58572;48.110;19.838;2023-02-07T06:56:51;99867.63;;;-7.69;66.61
70921;BME280;58572;48.110;19.838;2023-02-07T06:59:19;99861.13;;;-7.43;65.86
70921;BME280;58572;48.110;19.838;2023-02-07T07:01:46;99857.06;;;-7.13;64.94
70921;BME280;58572;48.110;19.838;2023-02-07T07:04:13;99855.63;;;-7.51;65.63
70921;BME280;58572;48.110;19.838;2023-02-07T07:06:40;99860.91;;;-7.62;68.10
70921;BME280;58572;48.110;19.838;2023-02-07T07:09:07;99826.44;;;-7.72;67.47
70921;BME280;58572;48.110;19.838;2023-02-07T07:11:34;99860.03;;;-7.29;67.15
70921;BME280;58572;48.110;19.838;2023-02-07T07:14:03;99831.72;;;-7.38;66.78
70921;BME280;58572;48.110;19.838;2023-02-07T07:16:31;99865.56;;;-6.98;65.18
70921;BME280;58572;48.110;19.838;2023-02-07T07:18:58;99864.28;;;-7.26;68.23
70921;BME280;58572;48.110;19.838;2023-02-07T07:21:25;99870.50;;;-7.38;68.95
70921;BME280;58572;48.110;19.838;2023-02-07T07:23:53;99872.31;;;-7.50;70.61
70921;BME280;58572;48.110;19.838;2023-02-07T07:26:20;99774.63;;;-7.95;70.65
70921;BME280;58572;48.110;19.838;2023-02-07T07:28:47;99871.38;;;-7.27;70.12
70921;BME280;58572;48.110;19.838;2023-02-07T07:31:15;99868.94;;;-7.30;70.35
70921;BME280;58572;48.110;19.838;2023-02-07T07:33:43;99826.69;;;-7.52;71.15
70921;BME280;58572;48.110;19.838;2023-02-07T07:36:10;99867.25;;;-7.42;71.16
70921;BME280;58572;48.110;19.838;2023-02-07T07:38:37;99868.56;;;-7.81;72.88
70921;BME280;58572;48.110;19.838;2023-02-07T07:41:04;99863.44;;;-7.27;72.16
70921;BME280;58572;48.110;19.838;2023-02-07T07:43:31;99774.28;;;-7.14;69.26
70921;BME280;58572;48.110;19.838;2023-02-07T07:45:58;99868.44;;;-6.58;68.20
70921;BME280;58572;48.110;19.838;2023-02-07T07:48:26;99850.31;;;-6.10;67.39
70921;BME280;58572;48.110;19.838;2023-02-07T07:50:54;99870.06;;;-6.78;66.61
70921;BME280;58572;48.110;19.838;2023-02-07T07:53:22;99867.63;;;-7.47;71.37
70921;BME280;58572;48.110;19.838;2023-02-07T07:55:49;99875.69;;;-7.26;72.23
70921;BME280;58572;48.110;19.838;2023-02-07T07:58:17;99879.28;;;-7.16;72.32
70921;BME280;58572;48.110;19.838;2023-02-07T08:00:45;99843.94;;;-7.03;72.00
70921;BME280;58572;48.110;19.838;2023-02-07T08:03:12;99860.41;;;-6.68;71.72
70921;BME280;58572;48.110;19.838;2023-02-07T08:05:39;99866.53;;;-6.35;69.87
70921;BME280;58572;48.110;19.838;2023-02-07T08:08:07;99872.34;;;-6.73;71.30
70921;BME280;58572;48.110;19.838;2023-02-07T08:10:35;99759.94;;;-7.43;72.65
70921;BME280;58572;48.110;19.838;2023-02-07T08:13:02;99866.63;;;-6.58;72.62
70921;BME280;58572;48.110;19.838;2023-02-07T08:15:30;99870.28;;;-6.06;70.30
70921;BME280;58572;48.110;19.838;2023-02-07T08:17:57;99871.44;;;-5.68;69.53
70921;BME280;58572;48.110;19.838;2023-02-07T08:20:24;99858.56;;;-6.24;72.13
70921;BME280;58572;48.110;19.838;2023-02-07T08:22:52;99870.09;;;-6.25;71.97
70921;BME280;58572;48.110;19.838;2023-02-07T08:25:20;99865.94;;;-6.07;70.70
70921;BME280;58572;48.110;19.838;2023-02-07T08:27:47;99860.00;;;-5.69;69.48
70921;BME280;58572;48.110;19.838;2023-02-07T08:30:15;99864.94;;;-5.85;69.66
70921;BME280;58572;48.110;19.838;2023-02-07T08:32:43;99874.75;;;-5.76;70.10
70921;BME280;58572;48.110;19.838;2023-02-07T08:35:10;99868.84;;;-5.89;71.24
70921;BME280;58572;48.110;19.838;2023-02-07T08:37:37;99865.28;;;-5.48;71.11
70921;BME280;58572;48.110;19.838;2023-02-07T08:40:05;99866.47;;;-5.31;70.27
70921;BME280;58572;48.110;19.838;2023-02-07T08:42:34;99860.03;;;-4.98;69.83
70921;BME280;58572;48.110;19.838;2023-02-07T08:45:01;99856.47;;;-4.68;69.54
70921;BME280;58572;48.110;19.838;2023-02-07T08:47:29;99847.53;;;-4.48;66.94
70921;BME280;58572;48.110;19.838;2023-02-07T08:49:56;99849.91;;;-3.97;66.91
70921;BME280;58572;48.110;19.838;2023-02-07T08:52:23;99712.28;;;-4.30;64.48
70921;BME280;58572;48.110;19.838;2023-02-07T08:54:50;99757.84;;;-3.24;64.51
70921;BME280;58572;48.110;19.838;2023-02-07T08:57:17;99827.97;;;-0.30;58.17
70921;BME280;58572;48.110;19.838;2023-02-07T08:59:49;99853.34;;;-1.86;60.85
70921;BME280;58572;48.110;19.838;2023-02-07T09:02:16;99852.41;;;-1.77;60.01
70921;BME280;58572;48.110;19.838;2023-02-07T09:04:43;99845.56;;;-1.54;58.78
70921;BME280;58572;48.110;19.838;2023-02-07T09:07:10;99847.66;;;-1.91;59.44
70921;BME280;58572;48.110;19.838;2023-02-07T09:09:38;99856.41;;;-2.17;60.27
70921;BME280;58572;48.110;19.838;2023-02-07T09:12:06;99852.44;;;-2.13;56.54
70921;BME280;58572;48.110;19.838;2023-02-07T09:14:34;99860.50;;;-1.35;56.15
70921;BME280;58572;48.110;19.838;2023-02-07T09:17:03;99856.72;;;-1.24;55.75
70921;BME280;58572;48.110;19.838;2023-02-07T09:19:31;99854.75;;;-0.88;53.76
70921;BME280;58572;48.110;19.838;2023-02-07T09:21:58;99853.66;;;-0.53;56.93
70921;BME280;58572;48.110;19.838;2023-02-07T09:24:25;99838.31;;;0.54;53.50
70921;BME280;58572;48.110;19.838;2023-02-07T09:26:53;99835.00;;;0.91;54.52
70921;BME280;58572;48.110;19.838;2023-02-07T09:29:20;99843.09;;;1.22;51.72
70921;BME280;58572;48.110;19.838;2023-02-07T09:31:47;99842.31;;;-0.47;54.60
70921;BME280;58572;48.110;19.838;2023-02-07T09:34:15;99840.88;;;0.23;53.13
70921;BME280;58572;48.110;19.838;2023-02-07T09:36:42;99753.81;;;1.53;48.24
70921;BME280;58572;48.110;19.838;2023-02-07T09:39:10;99841.84;;;2.10;50.19
70921;BME280;58572;48.110;19.838;2023-02-07T09:41:42;99848.75;;;2.27;43.64
70921;BME280;58572;48.110;19.838;2023-02-07T09:44:15;99837.09;;;3.38;44.25
70921;BME280;58572;48.110;19.838;2023-02-07T09:46:49;99829.56;;;4.12;46.78
70921;BME280;58572;48.110;19.838;2023-02-07T09:49:32;99849.59;;;0.81;48.43
70921;BME280;58572;48.110;19.838;2023-02-07T09:52:02;99850.28;;;2.74;51.21
70921;BME280;58572;48.110;19.838;2023-02-07T09:54:34;99817.59;;;5.59;44.29
70921;BME280;58572;48.110;19.838;2023-02-07T09:57:05;99807.78;;;8.24;39.20
70921;BME280;58572;48.110;19.838;2023-02-07T09:59:42;99818.38;;;5.40;38.62
70921;BME280;58572;48.110;19.838;2023-02-07T10:02:22;99788.97;;;3.85;40.86
70921;BME280;58572;48.110;19.838;2023-02-07T10:04:56;99835.03;;;7.28;38.38
70921;BME280;58572;48.110;19.838;2023-02-07T10:07:26;99838.31;;;4.70;41.13
70921;BME280;58572;48.110;19.838;2023-02-07T10:09:53;99857.16;;;2.24;40.52
70921;BME280;58572;48.110;19.838;2023-02-07T10:12:43;99834.88;;;6.97;37.65
70921;BME280;58572;48.110;19.838;2023-02-07T10:15:26;99848.28;;;4.41;40.36
70921;BME280;58572;48.110;19.838;2023-02-07T10:18:22;99847.03;;;2.64;43.00
70921;BME280;58572;48.110;19.838;2023-02-07T10:21:02;99849.88;;;2.47;49.27
70921;BME280;58572;48.110;19.838;2023-02-07T10:23:47;99820.19;;;6.00;34.91
70921;BME280;58572;48.110;19.838;2023-02-07T10:26:22;99809.66;;;7.10;40.90
70921;BME280;58572;48.110;19.838;2023-02-07T10:29:12;99754.34;;;3.33;36.75
70921;BME280;58572;48.110;19.838;2023-02-07T10:31:46;99820.09;;;3.73;45.39
70921;BME280;58572;48.110;19.838;2023-02-07T10:34:17;99799.41;;;8.26;40.43
70921;BME280;58572;48.110;19.838;2023-02-07T10:36:52;99814.16;;;4.83;43.61
70921;BME280;58572;48.110;19.838;2023-02-07T10:39:24;99731.00;;;4.73;43.57
70921;BME280;58572;48.110;19.838;2023-02-07T10:41:54;99813.28;;;4.76;40.18
70921;BME280;58572;48.110;19.838;2023-02-07T10:44:22;99827.97;;;3.75;42.62
70921;BME280;58572;48.110;19.838;2023-02-07T10:46:53;99820.19;;;4.92;36.63
70921;BME280;58572;48.110;19.838;2023-02-07T10:49:23;99834.97;;;3.69;41.09
70921;BME280;58572;48.110;19.838;2023-02-07T10:51:55;99833.25;;;2.67;42.18
70921;BME280;58572;48.110;19.838;2023-02-07T10:54:22;99843.63;;;2.70;41.28
70921;BME280;58572;48.110;19.838;2023-02-07T10:56:51;99831.03;;;2.85;42.78
70921;BME280;58572;48.110;19.838;2023-02-07T10:59:34;99823.28;;;3.41;41.96
70921;BME280;58572;48.110;19.838;2023-02-07T11:02:07;99829.81;;;2.87;43.56
70921;BME280;58572;48.110;19.838;2023-02-07T11:04:50;99756.13;;;5.35;39.30
70921;BME280;58572;48.110;19.838;2023-02-07T11:07:19;99827.91;;;4.32;40.24
70921;BME280;58572;48.110;19.838;2023-02-07T11:09:47;99827.22;;;2.94;40.44
70921;BME280;58572;48.110;19.838;2023-02-07T11:12:22;99815.81;;;2.48;41.95
70921;BME280;58572;48.110;19.838;2023-02-07T11:14:59;99816.78;;;3.71;41.38
70921;BME280;58572;48.110;19.838;2023-02-07T11:17:27;99814.69;;;2.28;31.50
70921;BME280;58572;48.110;19.838;2023-02-07T11:19:56;99797.72;;;4.71;31.98
70921;BME280;58572;48.110;19.838;2023-02-07T11:22:30;99813.03;;;4.15;38.47
70921;BME280;58572;48.110;19.838;2023-02-07T11:25:02;99783.34;;;7.43;36.51
70921;BME280;58572;48.110;19.838;2023-02-07T11:27:35;99807.25;;;3.33;40.09
70921;BME280;58572;48.110;19.838;2023-02-07T11:30:07;99778.19;;;7.35;33.81
70921;BME280;58572;48.110;19.838;2023-02-07T11:32:36;99784.38;;;5.52;36.92
70921;BME280;58572;48.110;19.838;2023-02-07T11:35:05;99795.63;;;3.68;40.76
70921;BME280;58572;48.110;19.838;2023-02-07T11:37:36;99795.72;;;3.03;41.17
70921;BME280;58572;48.110;19.838;2023-02-07T11:40:27;99789.22;;;3.91;40.62
70921;BME280;58572;48.110;19.838;2023-02-07T11:43:00;99778.38;;;5.02;35.01
70921;BME280;58572;48.110;19.838;2023-02-07T11:45:31;99785.84;;;5.07;38.35
70921;BME280;58572;48.110;19.838;2023-02-07T11:48:00;99801.75;;;2.61;40.44
70921;BME280;58572;48.110;19.838;2023-02-07T11:50:30;99795.66;;;3.32;41.25
70921;BME280;58572;48.110;19.838;2023-02-07T11:53:00;99797.41;;;1.47;35.05
70921;BME280;58572;48.110;19.838;2023-02-07T11:55:31;99795.63;;;2.96;41.96
70921;BME280;58572;48.110;19.838;2023-02-07T11:58:01;99728.78;;;1.60;41.76
70921;BME280;58572;48.110;19.838;2023-02-07T12:00:35;99707.13;;;1.24;40.87
70921;BME280;58572;48.110;19.838;2023-02-07T12:03:05;99797.25;;;1.17;39.34
70921;BME280;58572;48.110;19.838;2023-02-07T12:05:37;99788.31;;;1.93;43.27
70921;BME280;58572;48.110;19.838;2023-02-07T12:08:12;99781.84;;;1.65;42.10
70921;BME280;58572;48.110;19.838;2023-02-07T12:10:44;99657.41;;;0.45;42.71
70921;BME280;58572;48.110;19.838;2023-02-07T12:13:14;99667.97;;;0.39;42.50
70921;BME280;58572;48.110;19.838;2023-02-07T12:15:47;99793.56;;;0.24;40.78
70921;BME280;58572;48.110;19.838;2023-02-07T12:18:20;99787.47;;;0.46;43.49
70921;BME280;58572;48.110;19.838;2023-02-07T12:20:57;99779.56;;;1.00;39.75
70921;BME280;58572;48.110;19.838;2023-02-07T12:23:36;99790.84;;;0.40;44.72
70921;BME280;58572;48.110;19.838;2023-02-07T12:26:10;99801.75;;;-0.43;41.89
70921;BME280;58572;48.110;19.838;2023-02-07T12:28:44;99786.66;;;0.85;44.69
70921;BME280;58572;48.110;19.838;2023-02-07T12:31:18;99705.34;;;0.08;44.98
70921;BME280;58572;48.110;19.838;2023-02-07T12:33:50;99783.03;;;-0.02;41.17
70921;BME280;58572;48.110;19.838;2023-02-07T12:36:26;99773.63;;;0.82;44.15
70921;BME280;58572;48.110;19.838;2023-02-07T12:38:59;99780.63;;;0.44;44.41
70921;BME280;58572;48.110;19.838;2023-02-07T12:41:30;99781.41;;;1.08;41.98
70921;BME280;58572;48.110;19.838;2023-02-07T12:44:08;99775.09;;;0.53;41.08
70921;BME280;58572;48.110;19.838;2023-02-07T12:46:47;99766.38;;;0.59;44.62
70921;BME280;58572;48.110;19.838;2023-02-07T12:49:33;99762.19;;;0.96;45.79
70921;BME280;58572;48.110;19.838;2023-02-07T12:52:23;99759.34;;;0.58;45.54
70921;BME280;58572;48.110;19.838;2023-02-07T12:55:04;99734.34;;;0.35;45.25
70921;BME280;58572;48.110;19.838;2023-02-07T12:57:37;99699.34;;;-0.03;46.52
70921;BME280;58572;48.110;19.838;2023-02-07T13:00:14;99757.19;;;0.93;44.30
70921;BME280;58572;48.110;19.838;2023-02-07T13:02:56;99584.47;;;0.20;46.45
70921;BME280;58572;48.110;19.838;2023-02-07T13:05:52;99759.69;;;0.55;49.14
70921;BME280;58572;48.110;19.838;2023-02-07T13:08:31;99771.81;;;-0.87;50.71
70921;BME280;58572;48.110;19.838;2023-02-07T13:11:10;99695.78;;;-1.33;50.91
70921;BME280;58572;48.110;19.838;2023-02-07T13:13:51;99759.50;;;-0.07;48.80